LF7423 weather

Glacier de Talèfre Altiport
Chamonix, Rhône Alpes, France

Public forecast

Using degrees Celsius for public forecast. Weather courtesy of forecast.io.

METAR (pilot weather report)

Closest report is Aosta Airport, 19.1 nm (35.3 km) ESE. Retrieved 2019/07/20 04:20 UTC (0 seconds ago):

LIMW 200420Z AUTO VRB02KT 9999 OVC035 20/17 Q1020

TAF (pilot weather forecast)

Closest forecast is Annecy-Haute-Savoie-Mont Blanc Airport, 36.7 nm (67.9 km) W. Retrieved 2019/07/20 03:00 UTC (1 hour ago):

TAF LFLP 200200Z 2003/2103 VRB02KT CAVOK BECMG 2008/2010 19008KT PROB30 TEMPO 2015/2021 SCT090CB